createdAt,value
2022-10-24T00:00:43.310Z,100.00
2022-10-24T00:03:11.148Z,100.00
2022-10-24T00:05:42.057Z,100.00
2022-10-24T00:08:09.201Z,100.00
2022-10-24T00:10:37.001Z,100.00
2022-10-24T00:13:04.310Z,100.00
2022-10-24T00:15:31.014Z,100.00
2022-10-24T00:17:57.646Z,100.00
2022-10-24T00:20:24.247Z,100.00
2022-10-24T00:22:50.880Z,100.00
2022-10-24T00:25:20.718Z,100.00
2022-10-24T00:27:47.537Z,100.00
2022-10-24T00:30:14.953Z,100.00
2022-10-24T00:32:41.765Z,100.00
2022-10-24T00:35:10.200Z,100.00
2022-10-24T00:37:38.446Z,100.00
2022-10-24T00:40:06.597Z,100.00
2022-10-24T00:42:34.143Z,100.00
2022-10-24T00:45:01.652Z,100.00
2022-10-24T00:47:28.625Z,100.00
2022-10-24T00:50:01.214Z,100.00
2022-10-24T00:52:30.682Z,100.00
2022-10-24T00:54:59.094Z,100.00
2022-10-24T00:57:37.137Z,100.00
2022-10-24T01:00:19.398Z,100.00
2022-10-24T01:02:46.433Z,100.00
2022-10-24T01:05:13.853Z,100.00
2022-10-24T01:07:53.579Z,100.00
2022-10-24T01:10:33.716Z,100.00
2022-10-24T01:16:11.953Z,100.00
2022-10-24T01:18:47.955Z,100.00
2022-10-24T01:21:25.500Z,100.00
2022-10-24T01:24:19.252Z,100.00
2022-10-24T01:27:07.235Z,100.00
2022-10-24T01:29:47.397Z,100.00
2022-10-24T01:32:38.058Z,100.00
2022-10-24T01:35:36.243Z,100.00
2022-10-24T01:38:14.780Z,100.00
2022-10-24T01:40:46.988Z,100.00
2022-10-24T01:43:15.375Z,100.00
2022-10-24T01:45:45.057Z,100.00
2022-10-24T01:48:16.734Z,100.00
2022-10-24T01:50:45.333Z,100.00
2022-10-24T01:53:12.815Z,100.00
2022-10-24T01:55:40.122Z,100.00
2022-10-24T01:58:07.899Z,100.00
2022-10-24T02:00:35.364Z,100.00
2022-10-24T02:03:06.770Z,100.00
2022-10-24T02:05:36.896Z,100.00
2022-10-24T02:08:07.017Z,100.00
2022-10-24T02:10:47.483Z,100.00
2022-10-24T02:13:32.679Z,100.00
2022-10-24T02:16:01.194Z,100.00
2022-10-24T02:18:28.887Z,100.00
2022-10-24T02:21:03.891Z,100.00
2022-10-24T02:23:43.490Z,100.00
2022-10-24T02:26:25.394Z,100.00
2022-10-24T02:28:53.818Z,100.00
2022-10-24T02:31:23.151Z,100.00
2022-10-24T02:33:51.590Z,100.00
2022-10-24T02:36:22.879Z,100.00
2022-10-24T02:38:51.126Z,100.00
2022-10-24T02:41:29.361Z,100.00
2022-10-24T02:43:57.040Z,100.00
2022-10-24T02:46:23.888Z,100.00
2022-10-24T02:48:57.384Z,100.00
2022-10-24T02:51:27.401Z,100.00
2022-10-24T02:53:54.347Z,100.00
2022-10-24T02:56:21.261Z,100.00
2022-10-24T02:58:47.931Z,100.00
2022-10-24T03:01:14.677Z,100.00
2022-10-24T03:03:41.491Z,100.00
2022-10-24T03:06:08.119Z,100.00
2022-10-24T03:08:34.916Z,100.00
2022-10-24T03:11:01.609Z,100.00
2022-10-24T03:13:28.561Z,100.00
2022-10-24T03:15:55.194Z,100.00
2022-10-24T03:18:21.827Z,100.00
2022-10-24T03:20:48.470Z,100.00
2022-10-24T03:23:16.526Z,100.00
2022-10-24T03:25:43.207Z,100.00
2022-10-24T03:28:09.982Z,100.00
2022-10-24T03:30:36.601Z,100.00
2022-10-24T03:33:03.206Z,100.00
2022-10-24T03:35:29.809Z,100.00
2022-10-24T03:37:56.444Z,100.00
2022-10-24T03:40:23.035Z,100.00
2022-10-24T03:42:49.746Z,100.00
2022-10-24T03:45:16.405Z,100.00
2022-10-24T03:47:43.022Z,100.00
2022-10-24T03:50:09.755Z,100.00
2022-10-24T03:52:36.532Z,100.00
2022-10-24T03:55:03.321Z,100.00
2022-10-24T03:57:30.165Z,100.00
2022-10-24T03:59:57.776Z,100.00
2022-10-24T04:02:24.413Z,100.00
2022-10-24T04:04:51.065Z,100.00
2022-10-24T04:07:17.694Z,100.00
2022-10-24T04:09:44.597Z,100.00
2022-10-24T04:12:11.314Z,100.00
2022-10-24T04:14:37.899Z,100.00
2022-10-24T04:17:04.603Z,100.00
2022-10-24T04:19:31.214Z,100.00
2022-10-24T04:21:57.797Z,100.00
2022-10-24T04:24:24.429Z,100.00
2022-10-24T04:26:51.051Z,100.00
2022-10-24T04:29:17.669Z,100.00
2022-10-24T04:31:44.269Z,100.00
2022-10-24T04:34:11.159Z,100.00
2022-10-24T04:36:37.775Z,100.00
2022-10-24T04:39:05.027Z,100.00
2022-10-24T04:41:31.728Z,100.00
2022-10-24T04:43:58.443Z,100.00
2022-10-24T04:46:27.324Z,100.00
2022-10-24T04:48:54.235Z,100.00
2022-10-24T04:51:22.586Z,100.00
2022-10-24T04:53:50.379Z,100.00
2022-10-24T04:56:18.463Z,100.00
2022-10-24T04:58:45.208Z,100.00
2022-10-24T05:01:12.222Z,100.00
2022-10-24T05:03:39.013Z,100.00
2022-10-24T05:06:06.364Z,100.00
2022-10-24T05:08:33.316Z,100.00
2022-10-24T05:11:00.167Z,100.00
2022-10-24T05:13:26.868Z,100.00
2022-10-24T05:15:56.651Z,100.00
2022-10-24T05:18:23.284Z,100.00
2022-10-24T05:20:50.077Z,100.00
2022-10-24T05:23:16.917Z,100.00
2022-10-24T05:25:43.824Z,100.00
2022-10-24T05:28:10.617Z,100.00
2022-10-24T05:30:37.415Z,100.00
2022-10-24T05:33:05.538Z,100.00
2022-10-24T05:35:32.356Z,100.00
2022-10-24T05:37:59.141Z,100.00
2022-10-24T05:40:25.953Z,100.00
2022-10-24T05:42:52.590Z,100.00
2022-10-24T05:45:19.573Z,100.00
2022-10-24T05:47:46.599Z,100.00
2022-10-24T05:50:13.721Z,100.00
2022-10-24T05:52:46.162Z,100.00
2022-10-24T05:55:16.937Z,100.00
2022-10-24T05:57:45.058Z,100.00
2022-10-24T06:00:14.462Z,100.00
2022-10-24T06:02:42.169Z,100.00
2022-10-24T06:05:12.765Z,100.00
2022-10-24T06:07:41.989Z,100.00
2022-10-24T06:10:10.181Z,100.00
2022-10-24T06:12:37.391Z,100.00
2022-10-24T06:15:06.019Z,100.00
2022-10-24T06:17:33.443Z,100.00
2022-10-24T06:20:00.334Z,100.00
2022-10-24T06:22:29.806Z,100.00
2022-10-24T06:24:57.245Z,100.00
2022-10-24T06:27:24.457Z,100.00
2022-10-24T06:29:51.166Z,100.00
2022-10-24T06:32:18.073Z,100.00
2022-10-24T06:34:44.882Z,100.00
2022-10-24T06:37:11.691Z,100.00
2022-10-24T06:39:38.505Z,100.00
2022-10-24T06:42:05.241Z,100.00
2022-10-24T06:44:32.076Z,100.00
2022-10-24T06:46:58.845Z,100.00
2022-10-24T06:49:25.552Z,100.00
2022-10-24T06:51:52.359Z,100.00
2022-10-24T06:54:19.097Z,100.00
2022-10-24T06:56:45.979Z,100.00
2022-10-24T06:59:16.083Z,100.00
2022-10-24T07:01:43.263Z,100.00
2022-10-24T07:04:10.059Z,100.00
2022-10-24T07:06:37.161Z,100.00
2022-10-24T07:09:05.527Z,100.00
2022-10-24T07:11:33.835Z,100.00
2022-10-24T07:14:01.825Z,100.00
2022-10-24T07:16:30.380Z,100.00
2022-10-24T07:18:57.201Z,100.00
2022-10-24T07:21:26.475Z,100.00
2022-10-24T07:23:53.807Z,100.00
2022-10-24T07:26:22.217Z,100.00
2022-10-24T07:28:53.414Z,100.00
2022-10-24T07:31:25.730Z,100.00
2022-10-24T07:33:53.234Z,100.00
2022-10-24T07:36:24.660Z,100.00
2022-10-24T07:38:54.675Z,100.00
2022-10-24T07:41:21.757Z,100.00
2022-10-24T07:43:48.462Z,100.00
2022-10-24T07:46:18.073Z,100.00
2022-10-24T07:48:44.893Z,100.00
2022-10-24T07:51:13.524Z,100.00
2022-10-24T07:53:41.330Z,100.00
2022-10-24T07:56:10.619Z,100.00
2022-10-24T07:58:37.648Z,100.00
2022-10-24T08:01:10.228Z,100.00
2022-10-24T08:03:37.150Z,100.00
2022-10-24T08:06:09.489Z,100.00
2022-10-24T08:08:37.693Z,100.00
2022-10-24T08:11:18.685Z,100.00
2022-10-24T08:13:45.504Z,100.00
2022-10-24T08:16:16.328Z,100.00
2022-10-24T08:18:46.916Z,100.00
2022-10-24T08:21:21.267Z,100.00
2022-10-24T08:23:54.945Z,100.00
2022-10-24T08:26:40.580Z,100.00
2022-10-24T08:32:17.606Z,100.00
2022-10-24T08:34:44.395Z,100.00
2022-10-24T08:37:13.042Z,100.00
2022-10-24T08:40:04.994Z,100.00
2022-10-24T08:43:02.726Z,100.00
2022-10-24T08:45:55.754Z,100.00
2022-10-24T08:48:34.241Z,100.00
2022-10-24T08:51:30.953Z,100.00
2022-10-24T08:53:58.592Z,100.00
2022-10-24T08:56:39.130Z,100.00
2022-10-24T08:59:15.119Z,100.00
2022-10-24T09:01:48.588Z,100.00
2022-10-24T09:04:25.941Z,100.00
2022-10-24T09:06:57.634Z,100.00
2022-10-24T09:09:38.678Z,100.00
2022-10-24T09:12:13.845Z,100.00
2022-10-24T09:14:42.561Z,100.00
2022-10-24T09:20:21.173Z,100.00
2022-10-24T09:22:48.186Z,100.00
2022-10-24T09:25:17.535Z,100.00
2022-10-24T09:27:45.267Z,100.00
2022-10-24T09:30:28.683Z,100.00
2022-10-24T09:32:59.746Z,100.00
2022-10-24T09:35:29.362Z,100.00
2022-10-24T09:38:33.552Z,100.00
2022-10-24T09:41:04.291Z,100.00
2022-10-24T09:43:47.599Z,100.00
2022-10-24T09:46:45.331Z,100.00
2022-10-24T09:49:22.836Z,100.00
2022-10-24T09:52:00.040Z,100.00
2022-10-24T09:54:30.079Z,100.00
2022-10-24T09:57:12.319Z,100.00
2022-10-24T09:59:42.296Z,100.00
2022-10-24T10:02:24.995Z,100.00
2022-10-24T10:05:20.293Z,100.00
2022-10-24T10:07:48.903Z,100.00
2022-10-24T10:10:19.012Z,100.00
2022-10-24T10:12:55.450Z,100.00
2022-10-24T10:15:36.558Z,100.00
2022-10-24T10:18:14.572Z,100.00
2022-10-24T10:20:42.996Z,100.00
2022-10-24T10:23:20.196Z,100.00
2022-10-24T10:25:47.012Z,100.00
2022-10-24T10:28:23.987Z,100.00
2022-10-24T10:30:54.799Z,100.00
2022-10-24T10:33:29.773Z,100.00
2022-10-24T10:36:08.153Z,100.00
2022-10-24T10:38:46.833Z,100.00
2022-10-24T10:41:47.543Z,100.00
2022-10-24T10:44:25.392Z,100.00
2022-10-24T10:47:06.373Z,100.00
2022-10-24T10:49:45.580Z,100.00
2022-10-24T10:52:13.494Z,100.00
2022-10-24T10:55:01.226Z,100.00
2022-10-24T10:57:38.840Z,100.00
2022-10-24T11:00:12.035Z,100.00
2022-10-24T11:02:55.047Z,100.00
2022-10-24T11:05:50.109Z,100.00
2022-10-24T11:08:39.801Z,100.00
2022-10-24T11:11:14.642Z,100.00
2022-10-24T11:13:48.760Z,100.00
2022-10-24T11:16:21.671Z,100.00
2022-10-24T11:18:51.240Z,100.00
2022-10-24T11:21:21.197Z,100.00
2022-10-24T11:24:12.703Z,100.00
2022-10-24T11:26:48.493Z,100.00
2022-10-24T11:29:15.019Z,100.00
2022-10-24T11:31:45.507Z,100.00
2022-10-24T11:34:20.560Z,100.00
2022-10-24T11:36:55.921Z,100.00
2022-10-24T11:39:30.385Z,100.00
2022-10-24T11:42:22.067Z,100.00
2022-10-24T11:45:11.049Z,100.00
2022-10-24T11:47:52.666Z,100.00
2022-10-24T11:50:26.725Z,100.00
2022-10-24T11:52:58.904Z,100.00
2022-10-24T11:55:37.358Z,100.00
2022-10-24T11:58:12.231Z,100.00
2022-10-24T12:01:05.559Z,100.00
2022-10-24T12:03:32.071Z,100.00
2022-10-24T12:06:32.680Z,100.00
2022-10-24T12:09:22.033Z,100.00
2022-10-24T12:12:01.044Z,100.00
2022-10-24T12:14:41.235Z,100.00
2022-10-24T12:17:21.712Z,100.00
2022-10-24T12:19:49.352Z,100.00
2022-10-24T12:22:21.902Z,100.00
2022-10-24T12:24:48.654Z,100.00
2022-10-24T12:27:21.212Z,100.00
2022-10-24T12:30:01.073Z,100.00
2022-10-24T12:32:42.465Z,100.00
2022-10-24T12:35:31.336Z,100.00
2022-10-24T12:37:58.797Z,100.00
2022-10-24T12:40:47.340Z,100.00
2022-10-24T12:43:34.148Z,100.00
2022-10-24T12:46:24.316Z,100.00
2022-10-24T12:48:56.923Z,100.00
2022-10-24T12:51:36.269Z,100.00
2022-10-24T12:54:10.826Z,100.00
2022-10-24T12:56:49.455Z,100.00
2022-10-24T12:59:27.483Z,100.00
2022-10-24T13:02:32.288Z,100.00
2022-10-24T13:05:14.070Z,100.00
2022-10-24T13:08:05.806Z,100.00
2022-10-24T13:11:01.742Z,100.00
2022-10-24T13:13:54.995Z,100.00
2022-10-24T13:16:44.511Z,100.00
2022-10-24T13:19:17.008Z,100.00
2022-10-24T13:21:48.678Z,100.00
2022-10-24T13:24:15.189Z,100.00
2022-10-24T13:27:03.921Z,100.00
2022-10-24T13:29:30.449Z,100.00
2022-10-24T13:32:06.089Z,99.21
2022-10-24T13:34:54.402Z,100.00
2022-10-24T13:37:31.851Z,99.86
2022-10-24T13:40:07.588Z,98.36
2022-10-24T13:42:40.023Z,97.12
2022-10-24T13:45:19.699Z,98.15
2022-10-24T13:47:50.904Z,98.50
2022-10-24T13:50:30.865Z,98.85
2022-10-24T13:53:05.463Z,97.71
2022-10-24T13:55:36.449Z,96.89
2022-10-24T13:58:05.930Z,98.21
2022-10-24T14:00:35.723Z,98.26
2022-10-24T14:03:05.141Z,96.92
2022-10-24T14:05:35.426Z,99.18
2022-10-24T14:08:02.510Z,96.63
2022-10-24T14:10:31.321Z,96.10
2022-10-24T14:12:58.296Z,97.39
2022-10-24T14:15:32.585Z,96.50
2022-10-24T14:18:01.560Z,98.29
2022-10-24T14:20:30.751Z,99.62
2022-10-24T14:22:57.718Z,99.80
2022-10-24T14:25:35.540Z,98.73
2022-10-24T14:28:10.121Z,99.16
2022-10-24T14:30:36.782Z,99.75
2022-10-24T14:33:21.050Z,100.00
2022-10-24T14:35:48.587Z,100.00
2022-10-24T14:38:16.780Z,100.00
2022-10-24T14:40:44.245Z,100.00
2022-10-24T14:43:28.537Z,100.00
2022-10-24T14:46:32.834Z,100.00
2022-10-24T14:49:22.963Z,100.00
2022-10-24T14:54:20.331Z,100.00
2022-10-24T14:56:47.369Z,100.00
2022-10-24T14:59:29.415Z,100.00
2022-10-24T15:02:05.319Z,100.00
2022-10-24T15:04:38.880Z,100.00
2022-10-24T15:07:30.029Z,100.00
2022-10-24T15:10:46.217Z,100.00
2022-10-24T15:13:14.612Z,100.00
2022-10-24T15:15:44.085Z,100.00
2022-10-24T15:18:40.564Z,100.00
2022-10-24T15:21:13.338Z,100.00
2022-10-24T15:23:48.340Z,100.00
2022-10-24T15:26:21.296Z,100.00
2022-10-24T15:28:54.682Z,100.00
2022-10-24T15:31:22.243Z,100.00
2022-10-24T15:33:51.913Z,100.00
2022-10-24T15:36:25.799Z,100.00
2022-10-24T15:38:55.959Z,100.00
2022-10-24T15:41:22.714Z,100.00
2022-10-24T15:43:49.367Z,100.00
2022-10-24T15:46:16.167Z,100.00
2022-10-24T15:48:43.456Z,100.00
2022-10-24T15:51:14.521Z,100.00
2022-10-24T15:53:41.869Z,100.00
2022-10-24T15:56:08.454Z,100.00
2022-10-24T15:58:35.159Z,100.00
2022-10-24T16:01:01.951Z,100.00
2022-10-24T16:03:28.687Z,100.00
2022-10-24T16:05:59.213Z,100.00
2022-10-24T16:08:25.868Z,100.00
2022-10-24T16:10:53.507Z,100.00
2022-10-24T16:13:22.228Z,100.00
2022-10-24T16:15:49.516Z,100.00
2022-10-24T16:18:16.133Z,100.00
2022-10-24T16:20:42.732Z,100.00
2022-10-24T16:23:11.347Z,100.00
2022-10-24T16:25:38.264Z,100.00
2022-10-24T16:28:07.204Z,100.00
2022-10-24T16:30:36.968Z,100.00
2022-10-24T16:33:03.878Z,100.00
2022-10-24T16:35:34.578Z,100.00
2022-10-24T16:38:02.737Z,100.00
2022-10-24T16:40:29.488Z,100.00
2022-10-24T16:42:57.702Z,100.00
2022-10-24T16:45:24.962Z,100.00
2022-10-24T16:47:51.623Z,100.00
2022-10-24T16:50:24.082Z,100.00
2022-10-24T16:52:52.326Z,100.00
2022-10-24T16:55:19.651Z,100.00
2022-10-24T16:57:46.887Z,100.00
2022-10-24T17:00:16.835Z,100.00
2022-10-24T17:02:45.643Z,100.00
2022-10-24T17:05:15.676Z,100.00
2022-10-24T17:07:43.140Z,100.00
2022-10-24T17:10:11.743Z,100.00
2022-10-24T17:12:42.685Z,100.00
2022-10-24T17:15:10.061Z,100.00
2022-10-24T17:17:36.690Z,100.00
2022-10-24T17:20:04.196Z,100.00
2022-10-24T17:22:30.945Z,100.00
2022-10-24T17:24:57.826Z,100.00
2022-10-24T17:27:24.960Z,100.00
2022-10-24T17:29:51.736Z,100.00
2022-10-24T17:32:18.503Z,100.00
2022-10-24T17:34:50.041Z,100.00
2022-10-24T17:37:35.332Z,100.00
2022-10-24T17:40:01.915Z,100.00
2022-10-24T17:42:28.766Z,100.00
2022-10-24T17:44:55.406Z,100.00
2022-10-24T17:47:22.012Z,100.00
2022-10-24T17:49:48.578Z,100.00
2022-10-24T17:52:21.619Z,100.00
2022-10-24T17:54:48.341Z,100.00
2022-10-24T17:57:14.900Z,100.00
2022-10-24T17:59:41.510Z,100.00
2022-10-24T18:02:13.390Z,100.00
2022-10-24T18:04:42.439Z,100.00
2022-10-24T18:07:09.160Z,100.00
2022-10-24T18:09:39.012Z,100.00
2022-10-24T18:12:06.285Z,100.00
2022-10-24T18:14:32.892Z,100.00
2022-10-24T18:17:01.138Z,100.00
2022-10-24T18:19:27.835Z,100.00
2022-10-24T18:21:54.452Z,100.00
2022-10-24T18:24:21.106Z,100.00
2022-10-24T18:26:47.847Z,100.00
2022-10-24T18:29:14.512Z,100.00
2022-10-24T18:31:41.144Z,100.00
2022-10-24T18:34:08.700Z,100.00
2022-10-24T18:36:36.889Z,100.00
2022-10-24T18:39:03.831Z,100.00
2022-10-24T18:41:46.869Z,100.00
2022-10-24T18:44:30.329Z,100.00
2022-10-24T18:47:02.807Z,100.00
2022-10-24T18:49:30.298Z,100.00
2022-10-24T18:52:07.286Z,100.00
2022-10-24T18:54:35.809Z,100.00
2022-10-24T18:57:02.759Z,100.00
2022-10-24T18:59:31.864Z,100.00
2022-10-24T19:02:13.751Z,100.00
2022-10-24T19:04:42.489Z,100.00
2022-10-24T19:07:10.120Z,100.00
2022-10-24T19:09:36.834Z,100.00
2022-10-24T19:12:03.525Z,100.00
2022-10-24T19:14:30.197Z,100.00
2022-10-24T19:16:58.193Z,100.00
2022-10-24T19:19:26.616Z,100.00
2022-10-24T19:21:53.408Z,100.00
2022-10-24T19:24:20.365Z,100.00
2022-10-24T19:26:47.233Z,100.00
2022-10-24T19:29:14.206Z,100.00
2022-10-24T19:31:40.808Z,100.00
2022-10-24T19:34:09.339Z,100.00
2022-10-24T19:36:36.124Z,100.00
2022-10-24T19:39:02.762Z,100.00
2022-10-24T19:41:29.350Z,100.00
2022-10-24T19:43:56.080Z,100.00
2022-10-24T19:46:22.947Z,100.00
2022-10-24T19:48:50.280Z,100.00
2022-10-24T19:51:18.076Z,100.00
2022-10-24T19:53:45.516Z,100.00
2022-10-24T19:56:20.066Z,100.00
2022-10-24T19:58:49.326Z,100.00
2022-10-24T20:01:29.315Z,100.00
2022-10-24T20:03:56.666Z,100.00
2022-10-24T20:06:24.636Z,100.00
2022-10-24T20:08:51.376Z,100.00
2022-10-24T20:11:20.594Z,100.00
2022-10-24T20:13:50.312Z,100.00
2022-10-24T20:16:17.907Z,100.00
2022-10-24T20:18:45.541Z,100.00
2022-10-24T20:21:14.704Z,100.00
2022-10-24T20:23:41.907Z,100.00
2022-10-24T20:26:15.334Z,100.00
2022-10-24T20:28:46.044Z,100.00
2022-10-24T20:31:23.118Z,100.00
2022-10-24T20:33:52.453Z,100.00
2022-10-24T20:36:21.357Z,100.00
2022-10-24T20:38:48.131Z,100.00
2022-10-24T20:41:14.983Z,100.00
2022-10-24T20:43:41.620Z,100.00
2022-10-24T20:46:08.426Z,100.00
2022-10-24T20:48:35.312Z,100.00
2022-10-24T20:51:10.923Z,100.00
2022-10-24T20:53:38.283Z,100.00
2022-10-24T20:56:12.342Z,100.00
2022-10-24T20:58:40.328Z,100.00
2022-10-24T21:01:08.773Z,100.00
2022-10-24T21:03:36.109Z,100.00
2022-10-24T21:06:04.254Z,100.00
2022-10-24T21:08:31.048Z,100.00
2022-10-24T21:10:57.867Z,100.00
2022-10-24T21:13:24.464Z,100.00
2022-10-24T21:15:57.498Z,100.00
2022-10-24T21:18:24.339Z,100.00
2022-10-24T21:20:51.156Z,100.00
2022-10-24T21:23:19.159Z,100.00
2022-10-24T21:25:45.836Z,100.00
2022-10-24T21:28:12.452Z,100.00
2022-10-24T21:30:39.346Z,100.00
2022-10-24T21:33:10.556Z,100.00
2022-10-24T21:35:40.133Z,100.00
2022-10-24T21:38:06.727Z,100.00
2022-10-24T21:40:33.334Z,100.00
2022-10-24T21:43:00.453Z,100.00
2022-10-24T21:45:27.123Z,100.00
2022-10-24T21:47:53.678Z,100.00
2022-10-24T21:50:21.797Z,100.00
2022-10-24T21:52:48.583Z,100.00
2022-10-24T21:55:15.385Z,100.00
2022-10-24T21:57:42.090Z,100.00
2022-10-24T22:00:09.536Z,100.00
2022-10-24T22:02:36.348Z,100.00
2022-10-24T22:05:03.180Z,100.00
2022-10-24T22:07:29.817Z,100.00
2022-10-24T22:10:01.087Z,100.00
2022-10-24T22:12:27.719Z,100.00
2022-10-24T22:14:54.356Z,100.00
2022-10-24T22:17:20.983Z,100.00
2022-10-24T22:19:47.776Z,100.00
2022-10-24T22:22:14.466Z,100.00
2022-10-24T22:24:41.086Z,100.00
2022-10-24T22:27:07.925Z,100.00
2022-10-24T22:29:34.571Z,100.00
2022-10-24T22:32:01.479Z,100.00
2022-10-24T22:34:28.535Z,100.00
2022-10-24T22:36:54.986Z,100.00
2022-10-24T22:39:23.567Z,100.00
2022-10-24T22:41:50.865Z,100.00
2022-10-24T22:44:20.501Z,100.00
2022-10-24T22:46:52.674Z,100.00
2022-10-24T22:49:23.620Z,100.00
2022-10-24T22:51:50.445Z,100.00
2022-10-24T22:54:22.272Z,100.00
2022-10-24T22:56:49.374Z,100.00
2022-10-24T22:59:16.421Z,100.00
2022-10-24T23:01:58.235Z,100.00
2022-10-24T23:04:46.692Z,100.00
2022-10-24T23:07:29.365Z,100.00
2022-10-24T23:09:55.947Z,100.00
2022-10-24T23:12:23.205Z,100.00
2022-10-24T23:14:50.679Z,100.00
2022-10-24T23:17:26.112Z,100.00
2022-10-24T23:19:53.510Z,100.00
2022-10-24T23:22:23.756Z,100.00
2022-10-24T23:24:51.739Z,100.00
2022-10-24T23:27:33.270Z,100.00
2022-10-24T23:30:01.937Z,100.00
2022-10-24T23:32:31.509Z,100.00
2022-10-24T23:34:58.812Z,100.00
2022-10-24T23:37:31.913Z,100.00
2022-10-24T23:40:00.436Z,100.00
2022-10-24T23:42:30.319Z,100.00
2022-10-24T23:45:05.165Z,100.00
2022-10-24T23:47:43.741Z,100.00
2022-10-24T23:50:16.035Z,100.00
2022-10-24T23:53:11.982Z,100.00
2022-10-24T23:55:38.777Z,100.00
2022-10-24T23:58:05.507Z,100.00
